createdAt,value
2023-12-04T00:00:36.979Z,3.10
2023-12-04T00:03:23.343Z,5.60
2023-12-04T00:05:49.864Z,8.70
2023-12-04T00:08:27.510Z,7.00
2023-12-04T00:10:54.623Z,5.90
2023-12-04T00:13:20.954Z,6.20
2023-12-04T00:15:47.387Z,6.80
2023-12-04T00:18:14.556Z,6.40
2023-12-04T00:20:40.880Z,4.60
2023-12-04T00:23:07.313Z,5.60
2023-12-04T00:25:33.913Z,5.70
2023-12-04T00:28:00.128Z,5.20
2023-12-04T00:30:26.633Z,5.70
2023-12-04T00:32:53.995Z,5.50
2023-12-04T00:35:21.201Z,4.70
2023-12-04T00:37:47.532Z,6.30
2023-12-04T00:40:15.324Z,5.40
2023-12-04T00:42:49.267Z,4.80
2023-12-04T00:45:17.671Z,5.00
2023-12-04T00:47:49.678Z,7.50
2023-12-04T00:53:48.727Z,9.50
2023-12-04T00:56:16.798Z,11.70
2023-12-04T00:58:43.257Z,14.20
2023-12-04T01:01:09.756Z,13.90
2023-12-04T01:03:36.235Z,15.30
2023-12-04T01:06:02.838Z,14.10
2023-12-04T01:08:29.258Z,10.80
2023-12-04T01:10:55.683Z,12.60
2023-12-04T01:13:28.674Z,14.60
2023-12-04T01:15:55.074Z,13.80
2023-12-04T01:18:22.433Z,11.40
2023-12-04T01:20:48.777Z,9.90
2023-12-04T01:23:15.566Z,11.30
2023-12-04T01:25:44.712Z,10.20
2023-12-04T01:28:11.240Z,12.00
2023-12-04T01:30:40.713Z,11.90
2023-12-04T01:33:07.587Z,10.40
2023-12-04T01:35:35.622Z,10.30
2023-12-04T01:38:02.449Z,9.30
2023-12-04T01:40:29.235Z,11.90
2023-12-04T01:42:56.822Z,10.70
2023-12-04T01:45:25.364Z,11.90
2023-12-04T01:47:52.175Z,12.30
2023-12-04T01:50:18.734Z,12.30
2023-12-04T01:52:45.265Z,6.00
2023-12-04T01:55:11.830Z,10.70
2023-12-04T01:57:38.696Z,10.60
2023-12-04T02:00:25.294Z,7.60
2023-12-04T02:02:52.603Z,10.00
2023-12-04T02:05:20.517Z,5.70
2023-12-04T02:07:48.613Z,6.00
2023-12-04T02:10:15.573Z,5.20
2023-12-04T02:12:43.327Z,11.00
2023-12-04T02:15:09.719Z,14.20
2023-12-04T02:17:36.222Z,13.90
2023-12-04T02:20:04.291Z,14.00
2023-12-04T02:22:30.598Z,10.70
2023-12-04T02:25:00.480Z,13.00
2023-12-04T02:27:27.182Z,12.30
2023-12-04T02:29:54.163Z,13.50
2023-12-04T02:32:20.891Z,13.50
2023-12-04T02:34:47.662Z,15.00
2023-12-04T02:37:14.154Z,17.00
2023-12-04T02:39:40.649Z,18.30
2023-12-04T02:42:07.086Z,15.00
2023-12-04T02:44:33.423Z,14.60
2023-12-04T02:47:00.456Z,13.70
2023-12-04T02:49:26.886Z,14.50
2023-12-04T02:51:53.295Z,13.90
2023-12-04T02:54:19.991Z,12.80
2023-12-04T02:56:46.358Z,13.30
2023-12-04T02:59:12.723Z,14.30
2023-12-04T03:01:40.179Z,13.60
2023-12-04T03:04:06.904Z,9.30
2023-12-04T03:06:33.652Z,14.20
2023-12-04T03:09:00.196Z,9.50
2023-12-04T03:11:26.524Z,13.70
2023-12-04T03:13:52.927Z,14.50
2023-12-04T03:16:19.299Z,14.00
2023-12-04T03:18:45.756Z,16.60
2023-12-04T03:21:12.463Z,15.40
2023-12-04T03:23:39.623Z,16.50
2023-12-04T03:26:05.882Z,14.80
2023-12-04T03:28:32.484Z,16.60
2023-12-04T03:30:59.027Z,14.40
2023-12-04T03:33:25.464Z,13.80
2023-12-04T03:35:52.529Z,14.70
2023-12-04T03:38:18.796Z,12.30
2023-12-04T03:40:44.999Z,13.50
2023-12-04T03:43:11.520Z,12.80
2023-12-04T03:45:37.900Z,11.30
2023-12-04T03:48:04.315Z,10.90
2023-12-04T03:50:30.588Z,11.20
2023-12-04T03:52:56.864Z,13.20
2023-12-04T03:55:23.142Z,13.70
2023-12-04T03:57:49.662Z,11.70
2023-12-04T04:00:16.010Z,12.80
2023-12-04T04:02:42.415Z,12.10
2023-12-04T04:05:08.898Z,11.30
2023-12-04T04:07:35.281Z,12.80
2023-12-04T04:10:04.736Z,13.10
2023-12-04T04:12:31.393Z,12.40
2023-12-04T04:14:57.857Z,9.30
2023-12-04T04:17:27.152Z,10.60
2023-12-04T04:19:56.367Z,10.10
2023-12-04T04:22:22.877Z,12.90
2023-12-04T04:24:49.443Z,10.90
2023-12-04T04:27:19.575Z,13.50
2023-12-04T04:29:46.421Z,12.40
2023-12-04T04:32:14.519Z,7.50
2023-12-04T04:34:42.495Z,11.20
2023-12-04T04:37:09.249Z,11.40
2023-12-04T04:39:35.651Z,12.40
2023-12-04T04:42:09.101Z,12.00
2023-12-04T04:44:35.629Z,13.20
2023-12-04T04:47:02.991Z,11.60
2023-12-04T04:49:29.369Z,12.80
2023-12-04T04:51:55.861Z,11.80
2023-12-04T04:54:22.229Z,11.50
2023-12-04T04:56:52.007Z,14.60
2023-12-04T04:59:18.313Z,14.00
2023-12-04T05:01:44.670Z,14.80
2023-12-04T05:04:11.618Z,13.60
2023-12-04T05:06:38.253Z,13.10
2023-12-04T05:09:05.177Z,10.40
2023-12-04T05:11:31.494Z,12.30
2023-12-04T05:13:57.809Z,8.50
2023-12-04T05:16:24.283Z,8.60
2023-12-04T05:18:50.727Z,9.50
2023-12-04T05:21:17.255Z,9.50
2023-12-04T05:23:43.694Z,9.60
2023-12-04T05:26:12.425Z,13.10
2023-12-04T05:28:39.153Z,9.70
2023-12-04T05:31:05.534Z,6.20
2023-12-04T05:33:31.906Z,11.90
2023-12-04T05:35:58.308Z,12.30
2023-12-04T05:38:24.619Z,10.90
2023-12-04T05:40:51.053Z,12.90
2023-12-04T05:43:17.405Z,10.20
2023-12-04T05:45:44.015Z,8.70
2023-12-04T05:48:11.028Z,10.50
2023-12-04T05:50:37.285Z,14.10
2023-12-04T05:53:04.752Z,14.00
2023-12-04T05:55:32.261Z,14.20
2023-12-04T05:57:58.839Z,14.50
2023-12-04T06:00:28.549Z,15.10
2023-12-04T06:02:56.586Z,15.50
2023-12-04T06:05:26.299Z,14.80
2023-12-04T06:07:52.723Z,16.20
2023-12-04T06:10:19.132Z,17.80
2023-12-04T06:12:48.101Z,15.40
2023-12-04T06:15:14.696Z,16.50
2023-12-04T06:17:41.105Z,18.60
2023-12-04T06:20:07.857Z,19.50
2023-12-04T06:22:34.196Z,20.60
2023-12-04T06:25:00.689Z,20.30
2023-12-04T06:27:27.648Z,20.90
2023-12-04T06:29:53.924Z,17.60
2023-12-04T06:32:20.364Z,17.10
2023-12-04T06:34:47.039Z,16.30
2023-12-04T06:37:13.371Z,14.80
2023-12-04T06:39:39.640Z,18.40
2023-12-04T06:42:23.418Z,16.20
2023-12-04T06:44:51.952Z,18.90
2023-12-04T06:47:18.790Z,14.50
2023-12-04T06:49:45.318Z,14.50
2023-12-04T06:52:11.747Z,17.60
2023-12-04T06:54:38.055Z,17.70
2023-12-04T06:57:04.592Z,15.60
2023-12-04T06:59:30.839Z,18.30
2023-12-04T07:01:57.248Z,17.30
2023-12-04T07:04:23.670Z,18.40
2023-12-04T07:06:50.409Z,18.70
2023-12-04T07:09:20.766Z,23.50
2023-12-04T07:11:47.106Z,26.10
2023-12-04T07:14:13.676Z,23.20
2023-12-04T07:16:41.347Z,26.30
2023-12-04T07:19:07.785Z,27.60
2023-12-04T07:21:34.337Z,31.60
2023-12-04T07:24:01.776Z,29.50
2023-12-04T07:26:29.278Z,32.60
2023-12-04T07:28:55.541Z,46.70
2023-12-04T07:31:25.003Z,43.90
2023-12-04T07:33:51.392Z,43.90
2023-12-04T07:36:17.604Z,34.70
2023-12-04T07:38:43.837Z,32.60
2023-12-04T07:41:10.299Z,31.10
2023-12-04T07:43:36.566Z,36.40
2023-12-04T07:46:03.984Z,39.70
2023-12-04T07:48:30.424Z,46.40
2023-12-04T07:50:57.300Z,49.30
2023-12-04T07:53:23.710Z,44.70
2023-12-04T07:55:51.639Z,41.60
2023-12-04T07:58:18.053Z,42.70
2023-12-04T08:00:44.549Z,40.70
2023-12-04T08:03:11.518Z,35.80
2023-12-04T08:05:38.211Z,37.30
2023-12-04T08:08:04.539Z,40.20
2023-12-04T08:10:30.911Z,35.20
2023-12-04T08:12:57.305Z,36.20
2023-12-04T08:15:26.941Z,34.90
2023-12-04T08:17:53.368Z,31.20
2023-12-04T08:20:30.405Z,34.20
2023-12-04T08:23:00.512Z,40.10
2023-12-04T08:25:27.061Z,38.60
2023-12-04T08:27:53.644Z,35.80
2023-12-04T08:30:20.457Z,35.10
2023-12-04T08:32:48.024Z,29.40
2023-12-04T08:35:14.973Z,18.70
2023-12-04T08:37:41.385Z,34.30
2023-12-04T08:40:09.144Z,25.10
2023-12-04T08:42:35.536Z,25.70
2023-12-04T08:45:02.899Z,22.50
2023-12-04T08:47:29.559Z,24.70
2023-12-04T08:49:55.992Z,23.90
2023-12-04T08:52:22.425Z,22.60
2023-12-04T08:54:48.756Z,23.00
2023-12-04T08:57:15.375Z,21.70
2023-12-04T08:59:41.663Z,21.00
2023-12-04T09:02:09.948Z,24.40
2023-12-04T09:04:38.251Z,22.70
2023-12-04T09:09:35.497Z,26.50
2023-12-04T09:12:01.993Z,23.20
2023-12-04T09:14:28.570Z,32.30
2023-12-04T09:16:57.725Z,35.70
2023-12-04T09:19:24.137Z,35.70
2023-12-04T09:21:59.011Z,36.70
2023-12-04T09:24:31.745Z,30.00
2023-12-04T09:26:58.119Z,30.50
2023-12-04T09:29:24.554Z,34.90
2023-12-04T09:31:50.903Z,46.70
2023-12-04T09:34:18.534Z,36.00
2023-12-04T09:36:44.830Z,48.20
2023-12-04T09:39:11.163Z,39.10
2023-12-04T09:41:38.092Z,36.00
2023-12-04T09:44:04.525Z,37.20
2023-12-04T09:46:31.042Z,34.20
2023-12-04T09:48:57.643Z,33.10
2023-12-04T09:51:24.152Z,36.70
2023-12-04T09:53:50.585Z,28.20
2023-12-04T09:56:18.554Z,28.20
2023-12-04T09:58:45.270Z,29.10
2023-12-04T10:01:11.885Z,28.60
2023-12-04T10:03:38.457Z,25.10
2023-12-04T10:06:05.002Z,27.80
2023-12-04T10:08:31.288Z,28.30
2023-12-04T10:11:00.065Z,28.30
2023-12-04T10:13:56.012Z,27.20
2023-12-04T10:16:12.946Z,27.00
2023-12-04T10:18:39.296Z,28.00
2023-12-04T10:21:08.598Z,28.80
2023-12-04T10:23:36.335Z,30.70
2023-12-04T10:26:04.998Z,29.10
2023-12-04T10:28:31.454Z,26.70
2023-12-04T10:30:58.372Z,27.80
2023-12-04T10:33:24.686Z,29.70
2023-12-04T10:35:51.325Z,31.60
2023-12-04T10:38:17.676Z,29.50
2023-12-04T10:40:43.900Z,35.20
2023-12-04T10:43:10.547Z,32.40
2023-12-04T10:45:37.116Z,30.70
2023-12-04T10:48:05.396Z,32.30
2023-12-04T10:50:31.860Z,19.00
2023-12-04T10:52:59.605Z,32.80
2023-12-04T10:55:25.952Z,27.40
2023-12-04T10:57:53.079Z,30.00
2023-12-04T11:00:19.419Z,34.00
2023-12-04T11:02:47.802Z,37.30
2023-12-04T11:05:15.753Z,33.80
2023-12-04T11:08:12.959Z,34.30
2023-12-04T11:10:30.079Z,35.30
2023-12-04T11:12:56.415Z,32.50
2023-12-04T11:15:23.012Z,31.60
2023-12-04T11:17:49.393Z,33.90
2023-12-04T11:20:16.836Z,28.90
2023-12-04T11:22:43.474Z,29.70
2023-12-04T11:25:09.860Z,32.40
2023-12-04T11:27:36.408Z,32.40
2023-12-04T11:30:03.632Z,33.60
2023-12-04T11:32:30.603Z,33.30
2023-12-04T11:35:00.832Z,34.90
2023-12-04T11:37:27.156Z,32.90
2023-12-04T11:39:53.466Z,32.50
2023-12-04T11:42:19.905Z,30.80
2023-12-04T11:44:46.368Z,28.80
2023-12-04T11:47:12.867Z,27.80
2023-12-04T11:49:40.334Z,30.30
2023-12-04T11:52:06.663Z,28.40
2023-12-04T11:54:33.132Z,28.70
2023-12-04T11:57:00.473Z,29.40
2023-12-04T11:59:29.429Z,29.40
2023-12-04T12:01:56.964Z,32.00
2023-12-04T12:04:23.850Z,31.10
2023-12-04T12:06:51.141Z,29.40
2023-12-04T12:09:17.556Z,33.00
2023-12-04T12:11:44.294Z,32.70
2023-12-04T12:14:10.550Z,32.70
2023-12-04T12:16:36.812Z,32.40
2023-12-04T12:19:04.117Z,31.70
2023-12-04T12:21:30.608Z,26.40
2023-12-04T12:23:57.394Z,20.80
2023-12-04T12:26:24.511Z,14.50
2023-12-04T12:28:51.980Z,13.60
2023-12-04T12:31:18.183Z,10.50
2023-12-04T12:33:44.829Z,9.30
2023-12-04T12:36:12.373Z,5.80
2023-12-04T12:38:38.884Z,6.60
2023-12-04T12:41:05.160Z,7.50
2023-12-04T12:43:32.316Z,11.30
2023-12-04T12:45:58.739Z,11.90
2023-12-04T12:48:25.131Z,5.50
2023-12-04T12:50:51.588Z,13.50
2023-12-04T12:53:17.995Z,15.60
2023-12-04T12:55:44.256Z,17.60
2023-12-04T12:58:10.834Z,17.60
2023-12-04T13:00:37.216Z,17.60
2023-12-04T13:03:03.879Z,14.30
2023-12-04T13:05:30.876Z,7.20
2023-12-04T13:07:57.583Z,6.90
2023-12-04T13:10:25.349Z,10.80
2023-12-04T13:12:57.072Z,11.00
2023-12-04T13:15:23.624Z,10.80
2023-12-04T13:17:50.018Z,12.40
2023-12-04T13:20:17.325Z,11.20
2023-12-04T13:22:43.952Z,11.00
2023-12-04T13:25:10.870Z,12.60
2023-12-04T13:27:39.142Z,13.00
2023-12-04T13:30:05.995Z,14.50
2023-12-04T13:32:34.156Z,11.10
2023-12-04T13:35:05.725Z,9.90
2023-12-04T13:37:32.335Z,10.80
2023-12-04T13:39:58.917Z,9.30
2023-12-04T13:42:44.093Z,9.90
2023-12-04T13:45:10.604Z,10.30
2023-12-04T13:47:37.668Z,9.90
2023-12-04T13:50:04.051Z,12.70
2023-12-04T13:52:34.175Z,11.60
2023-12-04T13:55:00.842Z,10.90
2023-12-04T13:57:34.429Z,11.80
2023-12-04T14:00:00.871Z,12.20
2023-12-04T14:02:28.419Z,12.20
2023-12-04T14:04:55.222Z,12.90
2023-12-04T14:07:22.565Z,11.40
2023-12-04T14:09:49.268Z,12.60
2023-12-04T14:12:16.737Z,16.30
2023-12-04T14:14:43.252Z,16.60
2023-12-04T14:17:10.810Z,16.30
2023-12-04T14:19:39.347Z,16.40
2023-12-04T14:22:06.165Z,16.30
2023-12-04T14:24:33.329Z,15.20
2023-12-04T14:26:59.636Z,13.80
2023-12-04T14:29:26.017Z,11.80
2023-12-04T14:31:52.663Z,10.50
2023-12-04T14:34:20.450Z,12.50
2023-12-04T14:36:46.985Z,12.80
2023-12-04T14:39:13.257Z,13.00
2023-12-04T14:41:39.641Z,13.70
2023-12-04T14:44:06.998Z,10.70
2023-12-04T14:46:34.040Z,12.60
2023-12-04T14:49:00.502Z,15.60
2023-12-04T14:51:27.191Z,14.00
2023-12-04T14:54:14.743Z,16.60
2023-12-04T14:57:04.300Z,16.40
2023-12-04T14:59:56.279Z,19.10
2023-12-04T15:02:41.727Z,20.10
2023-12-04T15:05:27.272Z,16.80
2023-12-04T15:08:16.247Z,14.60
2023-12-04T15:11:00.165Z,15.00
2023-12-04T15:13:33.099Z,15.30
2023-12-04T15:15:59.462Z,15.10
2023-12-04T15:19:04.425Z,15.60
2023-12-04T15:21:31.993Z,10.70
2023-12-04T15:23:58.351Z,18.50
2023-12-04T15:26:24.641Z,17.30
2023-12-04T15:28:51.390Z,17.20
2023-12-04T15:31:20.880Z,20.30
2023-12-04T15:33:54.843Z,20.00
2023-12-04T15:36:23.070Z,19.80
2023-12-04T15:38:49.355Z,21.20
2023-12-04T15:41:17.326Z,20.10
2023-12-04T15:43:48.752Z,21.90
2023-12-04T15:46:15.067Z,23.50
2023-12-04T15:48:41.381Z,23.70
2023-12-04T15:51:07.978Z,23.90
2023-12-04T15:53:34.292Z,26.50
2023-12-04T15:56:00.590Z,22.00
2023-12-04T15:58:27.423Z,21.60
2023-12-04T16:00:53.758Z,27.30
2023-12-04T16:03:20.668Z,27.80
2023-12-04T16:05:48.179Z,26.70
2023-12-04T16:08:14.966Z,22.90
2023-12-04T16:10:41.306Z,24.90
2023-12-04T16:13:07.906Z,30.40
2023-12-04T16:15:34.452Z,25.30
2023-12-04T16:18:00.874Z,29.80
2023-12-04T16:20:27.685Z,31.90
2023-12-04T16:22:54.283Z,25.20
2023-12-04T16:25:22.633Z,34.60
2023-12-04T16:27:48.968Z,33.90
2023-12-04T16:30:15.525Z,37.40
2023-12-04T16:32:42.364Z,37.70
2023-12-04T16:35:09.100Z,25.10
2023-12-04T16:37:37.111Z,23.10
2023-12-04T16:40:03.810Z,18.20
2023-12-04T16:42:30.238Z,18.10
2023-12-04T16:44:56.513Z,18.50
2023-12-04T16:47:23.128Z,16.00
2023-12-04T16:49:49.575Z,14.40
2023-12-04T16:52:16.478Z,12.20
2023-12-04T16:54:43.157Z,11.10
2023-12-04T16:57:10.677Z,11.30
2023-12-04T16:59:37.144Z,10.30
2023-12-04T17:02:03.407Z,9.20
2023-12-04T17:04:30.066Z,10.20
2023-12-04T17:06:57.481Z,10.10
2023-12-04T17:09:24.006Z,9.60
2023-12-04T17:11:50.392Z,9.80
2023-12-04T17:14:16.888Z,8.40
2023-12-04T17:16:43.267Z,10.60
2023-12-04T17:19:12.466Z,8.50
2023-12-04T17:21:39.121Z,9.30
2023-12-04T17:24:05.491Z,9.10
2023-12-04T17:26:31.751Z,6.00
2023-12-04T17:28:58.357Z,8.00
2023-12-04T17:31:24.668Z,9.00
2023-12-04T17:33:51.113Z,8.20
2023-12-04T17:36:18.308Z,6.90
2023-12-04T17:38:44.637Z,7.50
2023-12-04T17:41:11.014Z,7.90
2023-12-04T17:43:37.451Z,7.90
2023-12-04T17:46:03.758Z,8.30
2023-12-04T17:48:30.009Z,8.40
2023-12-04T17:50:56.355Z,9.50
2023-12-04T17:53:22.880Z,7.20
2023-12-04T17:55:49.155Z,9.90
2023-12-04T17:58:15.453Z,9.90
2023-12-04T18:00:41.859Z,8.90
2023-12-04T18:03:11.006Z,10.20
2023-12-04T18:05:37.914Z,10.50
2023-12-04T18:08:04.446Z,8.70
2023-12-04T18:10:30.775Z,9.70
2023-12-04T18:12:57.049Z,9.90
2023-12-04T18:15:23.489Z,8.60
2023-12-04T18:17:51.762Z,8.10
2023-12-04T18:20:18.333Z,8.90
2023-12-04T18:22:44.884Z,10.20
2023-12-04T18:25:11.396Z,10.20
2023-12-04T18:27:38.100Z,9.00
2023-12-04T18:30:04.768Z,8.90
2023-12-04T18:32:31.223Z,8.80
2023-12-04T18:34:58.826Z,9.10
2023-12-04T18:37:25.944Z,9.90
2023-12-04T18:39:53.072Z,10.80
2023-12-04T18:42:19.342Z,10.20
2023-12-04T18:44:45.811Z,11.00
2023-12-04T18:47:12.090Z,10.90
2023-12-04T18:49:39.697Z,9.90
2023-12-04T18:52:06.524Z,10.30
2023-12-04T18:54:32.801Z,13.00
2023-12-04T18:56:59.124Z,14.20
2023-12-04T18:59:26.239Z,13.50
2023-12-04T19:01:52.597Z,7.80
2023-12-04T19:04:19.161Z,15.10
2023-12-04T19:06:46.181Z,18.70
2023-12-04T19:09:13.664Z,21.90
2023-12-04T19:11:39.949Z,20.20
2023-12-04T19:14:09.824Z,13.90
2023-12-04T19:16:37.836Z,13.30
2023-12-04T19:19:05.605Z,12.30
2023-12-04T19:21:32.091Z,11.10
2023-12-04T19:23:58.405Z,9.70
2023-12-04T19:26:24.773Z,10.10
2023-12-04T19:28:51.384Z,9.80
2023-12-04T19:31:17.894Z,10.00
2023-12-04T19:33:44.488Z,11.60
2023-12-04T19:36:11.204Z,11.40
2023-12-04T19:38:39.506Z,11.20
2023-12-04T19:41:07.741Z,10.80
2023-12-04T19:43:34.251Z,12.90
2023-12-04T19:46:01.195Z,12.60
2023-12-04T19:48:27.627Z,15.60
2023-12-04T19:50:55.618Z,11.90
2023-12-04T19:53:23.389Z,8.10
2023-12-04T19:55:49.731Z,11.60
2023-12-04T19:58:19.097Z,14.40
2023-12-04T20:00:45.445Z,13.50
2023-12-04T20:03:12.679Z,11.10
2023-12-04T20:05:39.969Z,11.60
2023-12-04T20:08:08.374Z,13.70
2023-12-04T20:10:38.313Z,13.80
2023-12-04T20:13:04.744Z,11.90
2023-12-04T20:15:32.693Z,13.40
2023-12-04T20:17:59.374Z,12.60
2023-12-04T20:20:25.861Z,16.10
2023-12-04T20:22:52.693Z,22.90
2023-12-04T20:25:19.060Z,20.70
2023-12-04T20:27:45.378Z,15.80
2023-12-04T20:30:12.120Z,12.60
2023-12-04T20:32:42.232Z,15.50
2023-12-04T20:35:09.135Z,13.40
2023-12-04T20:37:41.728Z,18.10
2023-12-04T20:40:09.767Z,20.30
2023-12-04T20:42:36.846Z,19.20
2023-12-04T20:45:04.191Z,15.90
2023-12-04T20:47:30.774Z,14.90
2023-12-04T20:49:57.207Z,11.40
2023-12-04T20:52:23.733Z,13.00
2023-12-04T20:54:50.133Z,12.60
2023-12-04T20:57:17.395Z,13.40
2023-12-04T20:59:43.875Z,12.60
2023-12-04T21:02:10.814Z,13.60
2023-12-04T21:04:37.136Z,12.90
2023-12-04T21:07:03.763Z,17.60
2023-12-04T21:09:31.365Z,13.80
2023-12-04T21:11:58.112Z,20.60
2023-12-04T21:14:26.554Z,19.60
2023-12-04T21:16:58.869Z,22.50
2023-12-04T21:19:27.935Z,26.40
2023-12-04T21:21:54.736Z,23.80
2023-12-04T21:24:21.485Z,24.70
2023-12-04T21:26:47.788Z,24.20
2023-12-04T21:29:14.190Z,21.90
2023-12-04T21:31:40.973Z,16.10
2023-12-04T21:34:07.287Z,17.30
2023-12-04T21:36:33.736Z,13.60
2023-12-04T21:39:00.365Z,20.20
2023-12-04T21:41:26.846Z,19.90
2023-12-04T21:43:53.212Z,27.80
2023-12-04T21:46:19.581Z,20.70
2023-12-04T21:48:46.356Z,17.10
2023-12-04T21:51:12.722Z,25.20
2023-12-04T21:53:41.312Z,28.50
2023-12-04T21:56:07.827Z,28.30
2023-12-04T21:58:34.240Z,42.50
2023-12-04T22:01:01.460Z,40.30
2023-12-04T22:03:27.933Z,47.40
2023-12-04T22:05:54.656Z,45.60
2023-12-04T22:08:21.033Z,51.10
2023-12-04T22:10:47.612Z,40.60
2023-12-04T22:13:13.962Z,38.20
2023-12-04T22:15:40.312Z,35.40
2023-12-04T22:18:06.963Z,47.10
2023-12-04T22:20:33.711Z,32.80
2023-12-04T22:23:01.024Z,31.00
2023-12-04T22:25:27.500Z,25.30
2023-12-04T22:27:53.907Z,21.00
2023-12-04T22:30:20.296Z,19.30
2023-12-04T22:32:46.581Z,19.40
2023-12-04T22:35:12.900Z,15.40
2023-12-04T22:37:39.434Z,19.60
2023-12-04T22:40:09.434Z,16.60
2023-12-04T22:42:36.708Z,16.00
2023-12-04T22:45:02.990Z,15.80
2023-12-04T22:47:29.462Z,16.40
2023-12-04T22:49:56.113Z,11.70
2023-12-04T22:52:22.769Z,12.30
2023-12-04T22:54:50.492Z,13.00
2023-12-04T22:57:16.959Z,11.60
2023-12-04T22:59:43.178Z,10.40
2023-12-04T23:02:09.575Z,10.00
2023-12-04T23:04:36.438Z,10.50
2023-12-04T23:07:02.890Z,10.30
2023-12-04T23:09:29.413Z,11.80
2023-12-04T23:11:55.917Z,11.60
2023-12-04T23:14:22.274Z,10.90
2023-12-04T23:16:48.602Z,10.00
2023-12-04T23:19:18.078Z,11.40
2023-12-04T23:21:44.682Z,6.80
2023-12-04T23:24:11.534Z,7.30
2023-12-04T23:26:37.976Z,6.80
2023-12-04T23:29:05.069Z,8.10
2023-12-04T23:31:32.278Z,6.10
2023-12-04T23:33:58.718Z,4.20
2023-12-04T23:36:25.953Z,6.50
2023-12-04T23:38:54.890Z,5.20
2023-12-04T23:41:21.519Z,5.80
2023-12-04T23:43:51.605Z,4.60
2023-12-04T23:46:20.385Z,4.80
2023-12-04T23:49:16.879Z,6.00
2023-12-04T23:54:48.420Z,5.30
2023-12-04T23:57:14.747Z,5.40
2023-12-04T23:59:41.021Z,4.40
